HKNW/WIL METAR and TAF weather

Enter ICAO airport designator
Station Type Date Time Source
HKNW METAR 2022/12/04 06:00 UTC NOAA

HKNW 040600Z 10015KT 9999 BKN010 BKN018 17/16 Q1022 RERA


Station Type Date Time Source
HKNW Decoded METAR 2022/12/04 06:00 UTC NOAA

Nairobi / Wilson, Kenya (HKNW) 01-19S 036-49E 1679M
Dec 04, 2022 - 01:00 AM EST / 2022.12.04 0600 UTC
Wind: from the E (100 degrees) at 17 MPH (15 KT):0
Visibility: greater than 7 mile(s):0
Sky conditions: mostly cloudy
Temperature: 62 F (17 C)
Dew Point: 60 F (16 C)
Relative Humidity: 93%
Pressure (altimeter): 30.18 in. Hg (1022 hPa)
ob: HKNW 040600Z 10015KT 9999 BKN010 BKN018 17/16 Q1022 RERA
cycle: 6

Station Type Date Time Source
HKNW TAF 2022/12/04 06:57 UTC NOAA

TAF HKNW 040500Z 0406/0506 04010KT 9999 BKN018
BECMG 0408/0411 06015KT FEW025CB BKN026
BECMG 0420/0423 04005KT BKN020
BECMG 0508/0511 06010KT BKN020

Example: see airport list